sensor_id;sensor_type;location;lat;lon;timestamp;temperature;humidity
55004;DHT22;40900;52.710;6.438;2023-03-19T00:01:24;11.00;99.90
55004;DHT22;40900;52.710;6.438;2023-03-19T00:03:50;11.00;99.90
55004;DHT22;40900;52.710;6.438;2023-03-19T00:06:15;10.90;99.90
55004;DHT22;40900;52.710;6.438;2023-03-19T00:08:41;10.90;99.90
55004;DHT22;40900;52.710;6.438;2023-03-19T00:11:08;10.90;99.90
55004;DHT22;40900;52.710;6.438;2023-03-19T00:13:35;10.90;99.90
55004;DHT22;40900;52.710;6.438;2023-03-19T00:16:00;10.80;99.90
55004;DHT22;40900;52.710;6.438;2023-03-19T00:18:26;10.90;99.90
55004;DHT22;40900;52.710;6.438;2023-03-19T00:20:52;10.90;99.90
55004;DHT22;40900;52.710;6.438;2023-03-19T00:23:18;10.90;99.90
55004;DHT22;40900;52.710;6.438;2023-03-19T00:25:44;10.90;99.90
55004;DHT22;40900;52.710;6.438;2023-03-19T00:28:09;10.90;99.90
55004;DHT22;40900;52.710;6.438;2023-03-19T00:30:36;10.90;99.90
55004;DHT22;40900;52.710;6.438;2023-03-19T00:33:02;10.90;99.90
55004;DHT22;40900;52.710;6.438;2023-03-19T00:35:28;10.90;99.90
55004;DHT22;40900;52.710;6.438;2023-03-19T00:37:54;10.90;99.90
55004;DHT22;40900;52.710;6.438;2023-03-19T00:40:19;10.90;99.90
55004;DHT22;40900;52.710;6.438;2023-03-19T00:42:45;10.90;99.90
55004;DHT22;40900;52.710;6.438;2023-03-19T00:45:11;10.90;99.90
55004;DHT22;40900;52.710;6.438;2023-03-19T00:47:37;10.80;99.90
55004;DHT22;40900;52.710;6.438;2023-03-19T00:50:03;10.80;99.90
55004;DHT22;40900;52.710;6.438;2023-03-19T00:52:29;10.80;99.90
55004;DHT22;40900;52.710;6.438;2023-03-19T00:54:55;10.80;99.90
55004;DHT22;40900;52.710;6.438;2023-03-19T00:57:22;10.80;99.90
55004;DHT22;40900;52.710;6.438;2023-03-19T00:59:47;10.80;99.90
55004;DHT22;40900;52.710;6.438;2023-03-19T01:02:13;10.80;99.90
55004;DHT22;40900;52.710;6.438;2023-03-19T01:04:39;10.80;99.90
55004;DHT22;40900;52.710;6.438;2023-03-19T01:07:05;10.80;99.90
55004;DHT22;40900;52.710;6.438;2023-03-19T01:09:31;10.80;99.90
55004;DHT22;40900;52.710;6.438;2023-03-19T01:11:57;10.80;99.90
55004;DHT22;40900;52.710;6.438;2023-03-19T01:14:23;10.70;99.90
55004;DHT22;40900;52.710;6.438;2023-03-19T01:16:49;10.70;99.90
55004;DHT22;40900;52.710;6.438;2023-03-19T01:19:15;10.70;99.90
55004;DHT22;40900;52.710;6.438;2023-03-19T01:21:41;10.70;99.90
55004;DHT22;40900;52.710;6.438;2023-03-19T01:24:11;10.70;99.90
55004;DHT22;40900;52.710;6.438;2023-03-19T01:26:37;10.70;99.90
55004;DHT22;40900;52.710;6.438;2023-03-19T01:29:03;10.70;99.90
55004;DHT22;40900;52.710;6.438;2023-03-19T01:31:29;10.70;99.90
55004;DHT22;40900;52.710;6.438;2023-03-19T01:33:54;10.70;99.90
55004;DHT22;40900;52.710;6.438;2023-03-19T01:36:20;10.60;99.90
55004;DHT22;40900;52.710;6.438;2023-03-19T01:38:47;10.60;99.90
55004;DHT22;40900;52.710;6.438;2023-03-19T01:41:13;10.60;99.90
55004;DHT22;40900;52.710;6.438;2023-03-19T01:43:38;10.60;99.90
55004;DHT22;40900;52.710;6.438;2023-03-19T01:46:12;10.60;99.90
55004;DHT22;40900;52.710;6.438;2023-03-19T01:48:48;10.60;99.90
55004;DHT22;40900;52.710;6.438;2023-03-19T01:51:18;10.60;99.90
55004;DHT22;40900;52.710;6.438;2023-03-19T01:53:50;10.60;99.90
55004;DHT22;40900;52.710;6.438;2023-03-19T01:56:23;10.60;99.90
55004;DHT22;40900;52.710;6.438;2023-03-19T01:58:55;10.60;99.90
55004;DHT22;40900;52.710;6.438;2023-03-19T02:01:21;10.50;99.90
55004;DHT22;40900;52.710;6.438;2023-03-19T02:03:49;10.50;99.90
55004;DHT22;40900;52.710;6.438;2023-03-19T02:06:17;10.50;99.90
55004;DHT22;40900;52.710;6.438;2023-03-19T02:08:45;10.50;99.90
55004;DHT22;40900;52.710;6.438;2023-03-19T02:11:11;10.40;99.90
55004;DHT22;40900;52.710;6.438;2023-03-19T02:13:37;10.50;99.90
55004;DHT22;40900;52.710;6.438;2023-03-19T02:16:04;10.40;99.90
55004;DHT22;40900;52.710;6.438;2023-03-19T02:18:30;10.40;99.90
55004;DHT22;40900;52.710;6.438;2023-03-19T02:21:04;10.40;99.90
55004;DHT22;40900;52.710;6.438;2023-03-19T02:26:22;10.40;99.90
55004;DHT22;40900;52.710;6.438;2023-03-19T02:28:50;10.40;99.90
55004;DHT22;40900;52.710;6.438;2023-03-19T02:31:16;10.40;99.90
55004;DHT22;40900;52.710;6.438;2023-03-19T02:33:43;10.40;99.90
55004;DHT22;40900;52.710;6.438;2023-03-19T02:36:17;10.40;99.90
55004;DHT22;40900;52.710;6.438;2023-03-19T02:38:45;10.40;99.90
55004;DHT22;40900;52.710;6.438;2023-03-19T02:41:12;10.40;99.90
55004;DHT22;40900;52.710;6.438;2023-03-19T02:43:39;10.40;99.90
55004;DHT22;40900;52.710;6.438;2023-03-19T02:46:11;10.40;99.90
55004;DHT22;40900;52.710;6.438;2023-03-19T02:48:37;10.30;99.90
55004;DHT22;40900;52.710;6.438;2023-03-19T02:51:04;10.40;99.90
55004;DHT22;40900;52.710;6.438;2023-03-19T02:53:30;10.40;99.90
55004;DHT22;40900;52.710;6.438;2023-03-19T02:55:56;10.40;99.90
55004;DHT22;40900;52.710;6.438;2023-03-19T02:58:21;10.40;99.90
55004;DHT22;40900;52.710;6.438;2023-03-19T03:00:47;10.40;99.90
55004;DHT22;40900;52.710;6.438;2023-03-19T03:03:13;10.40;99.90
55004;DHT22;40900;52.710;6.438;2023-03-19T03:05:39;10.30;99.90
55004;DHT22;40900;52.710;6.438;2023-03-19T03:08:05;10.30;99.90
55004;DHT22;40900;52.710;6.438;2023-03-19T03:10:31;10.30;99.90
55004;DHT22;40900;52.710;6.438;2023-03-19T03:12:58;10.20;99.90
55004;DHT22;40900;52.710;6.438;2023-03-19T03:15:27;10.20;99.90
55004;DHT22;40900;52.710;6.438;2023-03-19T03:17:53;10.20;99.90
55004;DHT22;40900;52.710;6.438;2023-03-19T03:20:20;10.20;99.90
55004;DHT22;40900;52.710;6.438;2023-03-19T03:22:46;10.20;99.90
55004;DHT22;40900;52.710;6.438;2023-03-19T03:25:13;10.20;99.90
55004;DHT22;40900;52.710;6.438;2023-03-19T03:27:39;10.10;99.90
55004;DHT22;40900;52.710;6.438;2023-03-19T03:30:06;10.20;99.90
55004;DHT22;40900;52.710;6.438;2023-03-19T03:32:36;10.10;99.90
55004;DHT22;40900;52.710;6.438;2023-03-19T03:35:03;10.00;99.90
55004;DHT22;40900;52.710;6.438;2023-03-19T03:37:29;10.10;99.90
55004;DHT22;40900;52.710;6.438;2023-03-19T03:39:56;10.10;99.90
55004;DHT22;40900;52.710;6.438;2023-03-19T03:42:21;10.10;99.90
55004;DHT22;40900;52.710;6.438;2023-03-19T03:44:47;10.10;99.90
55004;DHT22;40900;52.710;6.438;2023-03-19T03:47:13;10.00;99.90
55004;DHT22;40900;52.710;6.438;2023-03-19T03:49:39;10.00;99.90
55004;DHT22;40900;52.710;6.438;2023-03-19T03:52:05;10.00;99.90
55004;DHT22;40900;52.710;6.438;2023-03-19T03:54:30;10.00;99.90
55004;DHT22;40900;52.710;6.438;2023-03-19T03:56:56;10.00;99.90
55004;DHT22;40900;52.710;6.438;2023-03-19T03:59:22;10.00;99.90
55004;DHT22;40900;52.710;6.438;2023-03-19T04:01:49;10.00;99.90
55004;DHT22;40900;52.710;6.438;2023-03-19T04:04:17;10.00;99.90
55004;DHT22;40900;52.710;6.438;2023-03-19T04:06:45;10.00;99.90
55004;DHT22;40900;52.710;6.438;2023-03-19T04:09:11;10.10;99.90
55004;DHT22;40900;52.710;6.438;2023-03-19T04:11:38;10.10;99.90
55004;DHT22;40900;52.710;6.438;2023-03-19T04:14:05;10.00;99.90
55004;DHT22;40900;52.710;6.438;2023-03-19T04:16:32;10.00;99.90
55004;DHT22;40900;52.710;6.438;2023-03-19T04:18:58;10.10;99.90
55004;DHT22;40900;52.710;6.438;2023-03-19T04:21:24;10.10;99.90
55004;DHT22;40900;52.710;6.438;2023-03-19T04:23:50;10.10;99.90
55004;DHT22;40900;52.710;6.438;2023-03-19T04:26:16;10.10;99.90
55004;DHT22;40900;52.710;6.438;2023-03-19T04:28:42;10.10;99.90
55004;DHT22;40900;52.710;6.438;2023-03-19T04:31:08;10.10;99.90
55004;DHT22;40900;52.710;6.438;2023-03-19T04:33:35;10.10;99.90
55004;DHT22;40900;52.710;6.438;2023-03-19T04:36:01;10.10;99.90
55004;DHT22;40900;52.710;6.438;2023-03-19T04:38:27;10.10;99.90
55004;DHT22;40900;52.710;6.438;2023-03-19T04:40:56;10.10;99.90
55004;DHT22;40900;52.710;6.438;2023-03-19T04:43:23;10.10;99.90
55004;DHT22;40900;52.710;6.438;2023-03-19T04:45:49;10.10;99.90
55004;DHT22;40900;52.710;6.438;2023-03-19T04:48:15;10.00;99.90
55004;DHT22;40900;52.710;6.438;2023-03-19T04:50:43;10.00;99.90
55004;DHT22;40900;52.710;6.438;2023-03-19T04:53:10;9.90;99.90
55004;DHT22;40900;52.710;6.438;2023-03-19T04:55:36;9.90;99.90
55004;DHT22;40900;52.710;6.438;2023-03-19T04:58:02;9.80;99.90
55004;DHT22;40900;52.710;6.438;2023-03-19T05:00:28;9.80;99.90
55004;DHT22;40900;52.710;6.438;2023-03-19T05:02:55;9.80;99.90
55004;DHT22;40900;52.710;6.438;2023-03-19T05:05:21;9.70;99.90
55004;DHT22;40900;52.710;6.438;2023-03-19T05:07:47;9.70;99.90
55004;DHT22;40900;52.710;6.438;2023-03-19T05:10:12;9.60;99.90
55004;DHT22;40900;52.710;6.438;2023-03-19T05:12:38;9.60;99.90
55004;DHT22;40900;52.710;6.438;2023-03-19T05:15:04;9.60;99.90
55004;DHT22;40900;52.710;6.438;2023-03-19T05:17:30;9.60;99.90
55004;DHT22;40900;52.710;6.438;2023-03-19T05:19:56;9.50;99.90
55004;DHT22;40900;52.710;6.438;2023-03-19T05:22:22;9.50;99.90
55004;DHT22;40900;52.710;6.438;2023-03-19T05:24:48;9.50;99.90
55004;DHT22;40900;52.710;6.438;2023-03-19T05:27:14;9.50;99.90
55004;DHT22;40900;52.710;6.438;2023-03-19T05:29:41;9.50;99.90
55004;DHT22;40900;52.710;6.438;2023-03-19T05:32:07;9.40;99.90
55004;DHT22;40900;52.710;6.438;2023-03-19T05:34:35;9.40;99.90
55004;DHT22;40900;52.710;6.438;2023-03-19T05:37:01;9.40;99.90
55004;DHT22;40900;52.710;6.438;2023-03-19T05:39:26;9.40;99.90
55004;DHT22;40900;52.710;6.438;2023-03-19T05:41:52;9.40;99.90
55004;DHT22;40900;52.710;6.438;2023-03-19T05:44:18;9.40;99.90
55004;DHT22;40900;52.710;6.438;2023-03-19T05:46:44;9.40;99.90
55004;DHT22;40900;52.710;6.438;2023-03-19T05:49:11;9.30;99.90
55004;DHT22;40900;52.710;6.438;2023-03-19T05:51:36;9.30;99.90
55004;DHT22;40900;52.710;6.438;2023-03-19T05:54:02;9.30;99.90
55004;DHT22;40900;52.710;6.438;2023-03-19T05:56:28;9.30;99.90
55004;DHT22;40900;52.710;6.438;2023-03-19T05:58:54;9.30;99.90
55004;DHT22;40900;52.710;6.438;2023-03-19T06:01:21;9.40;99.90
55004;DHT22;40900;52.710;6.438;2023-03-19T06:03:47;9.30;99.90
55004;DHT22;40900;52.710;6.438;2023-03-19T06:06:13;9.30;99.90
55004;DHT22;40900;52.710;6.438;2023-03-19T06:08:38;9.30;99.90
55004;DHT22;40900;52.710;6.438;2023-03-19T06:11:04;9.40;99.90
55004;DHT22;40900;52.710;6.438;2023-03-19T06:13:31;9.40;99.90
55004;DHT22;40900;52.710;6.438;2023-03-19T06:15:56;9.40;99.90
55004;DHT22;40900;52.710;6.438;2023-03-19T06:18:22;9.30;99.90
55004;DHT22;40900;52.710;6.438;2023-03-19T06:20:48;9.30;99.90
55004;DHT22;40900;52.710;6.438;2023-03-19T06:23:13;9.30;99.90
55004;DHT22;40900;52.710;6.438;2023-03-19T06:25:39;9.30;99.90
55004;DHT22;40900;52.710;6.438;2023-03-19T06:28:06;9.30;99.90
55004;DHT22;40900;52.710;6.438;2023-03-19T06:30:32;9.30;99.90
55004;DHT22;40900;52.710;6.438;2023-03-19T06:32:58;9.30;99.90
55004;DHT22;40900;52.710;6.438;2023-03-19T06:35:25;9.20;99.90
55004;DHT22;40900;52.710;6.438;2023-03-19T06:37:51;9.20;99.90
55004;DHT22;40900;52.710;6.438;2023-03-19T06:40:17;9.20;99.90
55004;DHT22;40900;52.710;6.438;2023-03-19T06:42:44;9.20;99.90
55004;DHT22;40900;52.710;6.438;2023-03-19T06:45:11;9.20;99.90
55004;DHT22;40900;52.710;6.438;2023-03-19T06:47:39;9.20;99.90
55004;DHT22;40900;52.710;6.438;2023-03-19T06:50:06;9.20;99.90
55004;DHT22;40900;52.710;6.438;2023-03-19T06:52:32;9.20;99.90
55004;DHT22;40900;52.710;6.438;2023-03-19T06:54:58;9.20;99.90
55004;DHT22;40900;52.710;6.438;2023-03-19T06:57:24;9.20;99.90
55004;DHT22;40900;52.710;6.438;2023-03-19T06:59:49;9.30;99.90
55004;DHT22;40900;52.710;6.438;2023-03-19T07:02:15;9.30;99.90
55004;DHT22;40900;52.710;6.438;2023-03-19T07:04:41;9.40;99.90
55004;DHT22;40900;52.710;6.438;2023-03-19T07:07:07;9.50;99.90
55004;DHT22;40900;52.710;6.438;2023-03-19T07:09:33;9.60;99.90
55004;DHT22;40900;52.710;6.438;2023-03-19T07:11:58;9.70;99.90
55004;DHT22;40900;52.710;6.438;2023-03-19T07:14:24;9.70;99.90
55004;DHT22;40900;52.710;6.438;2023-03-19T07:16:50;9.60;99.90
55004;DHT22;40900;52.710;6.438;2023-03-19T07:19:16;9.60;99.90
55004;DHT22;40900;52.710;6.438;2023-03-19T07:21:42;9.90;99.90
55004;DHT22;40900;52.710;6.438;2023-03-19T07:24:07;10.20;99.90
55004;DHT22;40900;52.710;6.438;2023-03-19T07:26:33;10.60;99.90
55004;DHT22;40900;52.710;6.438;2023-03-19T07:28:59;11.10;99.90
55004;DHT22;40900;52.710;6.438;2023-03-19T07:31:26;11.90;99.90
55004;DHT22;40900;52.710;6.438;2023-03-19T07:33:52;12.70;99.90
55004;DHT22;40900;52.710;6.438;2023-03-19T07:36:17;13.50;99.90
55004;DHT22;40900;52.710;6.438;2023-03-19T07:38:43;13.80;99.90
55004;DHT22;40900;52.710;6.438;2023-03-19T07:41:09;13.60;99.90
55004;DHT22;40900;52.710;6.438;2023-03-19T07:43:35;13.20;99.90
55004;DHT22;40900;52.710;6.438;2023-03-19T07:46:00;13.00;99.90
55004;DHT22;40900;52.710;6.438;2023-03-19T07:48:26;13.20;99.90
55004;DHT22;40900;52.710;6.438;2023-03-19T07:50:52;13.70;99.90
55004;DHT22;40900;52.710;6.438;2023-03-19T07:53:18;14.10;99.90
55004;DHT22;40900;52.710;6.438;2023-03-19T07:55:46;14.80;99.90
55004;DHT22;40900;52.710;6.438;2023-03-19T07:58:12;14.80;99.90
55004;DHT22;40900;52.710;6.438;2023-03-19T08:00:38;15.40;99.90
55004;DHT22;40900;52.710;6.438;2023-03-19T08:03:03;16.20;99.90
55004;DHT22;40900;52.710;6.438;2023-03-19T08:05:29;16.30;99.90
55004;DHT22;40900;52.710;6.438;2023-03-19T08:07:55;15.90;99.90
55004;DHT22;40900;52.710;6.438;2023-03-19T08:10:21;16.50;99.90
55004;DHT22;40900;52.710;6.438;2023-03-19T08:12:47;16.10;99.90
55004;DHT22;40900;52.710;6.438;2023-03-19T08:15:13;16.60;99.90
55004;DHT22;40900;52.710;6.438;2023-03-19T08:17:39;16.60;99.90
55004;DHT22;40900;52.710;6.438;2023-03-19T08:20:10;16.50;99.90
55004;DHT22;40900;52.710;6.438;2023-03-19T08:22:37;16.70;99.90
55004;DHT22;40900;52.710;6.438;2023-03-19T08:25:05;16.30;99.90
55004;DHT22;40900;52.710;6.438;2023-03-19T08:27:32;14.90;99.90
55004;DHT22;40900;52.710;6.438;2023-03-19T08:30:01;14.60;99.90
55004;DHT22;40900;52.710;6.438;2023-03-19T08:32:28;14.10;99.90
55004;DHT22;40900;52.710;6.438;2023-03-19T08:34:54;13.70;99.90
55004;DHT22;40900;52.710;6.438;2023-03-19T08:37:20;13.20;99.90
55004;DHT22;40900;52.710;6.438;2023-03-19T08:39:46;12.70;99.90
55004;DHT22;40900;52.710;6.438;2023-03-19T08:42:14;12.30;99.90
55004;DHT22;40900;52.710;6.438;2023-03-19T08:44:40;12.30;99.90
55004;DHT22;40900;52.710;6.438;2023-03-19T08:47:05;12.30;99.90
55004;DHT22;40900;52.710;6.438;2023-03-19T08:49:31;12.10;99.90
55004;DHT22;40900;52.710;6.438;2023-03-19T08:51:57;11.90;99.90
55004;DHT22;40900;52.710;6.438;2023-03-19T08:54:23;12.00;99.90
55004;DHT22;40900;52.710;6.438;2023-03-19T08:56:48;11.80;99.90
55004;DHT22;40900;52.710;6.438;2023-03-19T08:59:15;11.60;99.90
55004;DHT22;40900;52.710;6.438;2023-03-19T09:01:41;11.70;99.90
55004;DHT22;40900;52.710;6.438;2023-03-19T09:04:08;11.70;99.90
55004;DHT22;40900;52.710;6.438;2023-03-19T09:06:34;11.90;99.90
55004;DHT22;40900;52.710;6.438;2023-03-19T09:09:00;12.50;99.90
55004;DHT22;40900;52.710;6.438;2023-03-19T09:11:25;12.90;99.90
55004;DHT22;40900;52.710;6.438;2023-03-19T09:13:51;13.30;99.90
55004;DHT22;40900;52.710;6.438;2023-03-19T09:16:17;13.40;99.90
55004;DHT22;40900;52.710;6.438;2023-03-19T09:18:43;13.10;99.90
55004;DHT22;40900;52.710;6.438;2023-03-19T09:21:09;13.00;99.90
55004;DHT22;40900;52.710;6.438;2023-03-19T09:23:34;12.80;99.90
55004;DHT22;40900;52.710;6.438;2023-03-19T09:26:00;12.50;99.90
55004;DHT22;40900;52.710;6.438;2023-03-19T09:28:26;12.50;99.90
55004;DHT22;40900;52.710;6.438;2023-03-19T09:30:52;12.40;99.90
55004;DHT22;40900;52.710;6.438;2023-03-19T09:33:19;12.20;99.90
55004;DHT22;40900;52.710;6.438;2023-03-19T09:35:50;12.10;99.90
55004;DHT22;40900;52.710;6.438;2023-03-19T09:38:17;12.20;99.90
55004;DHT22;40900;52.710;6.438;2023-03-19T09:40:47;12.10;99.90
55004;DHT22;40900;52.710;6.438;2023-03-19T09:45:45;12.00;99.90
55004;DHT22;40900;52.710;6.438;2023-03-19T09:48:18;11.90;99.90
55004;DHT22;40900;52.710;6.438;2023-03-19T09:50:45;11.90;99.90
55004;DHT22;40900;52.710;6.438;2023-03-19T09:53:21;11.90;99.90
55004;DHT22;40900;52.710;6.438;2023-03-19T09:55:50;12.00;99.90
55004;DHT22;40900;52.710;6.438;2023-03-19T09:58:31;12.20;99.90
55004;DHT22;40900;52.710;6.438;2023-03-19T10:00:58;12.30;99.90
55004;DHT22;40900;52.710;6.438;2023-03-19T10:12:24;12.90;99.90
55004;DHT22;40900;52.710;6.438;2023-03-19T10:18:01;13.20;99.90
55004;DHT22;40900;52.710;6.438;2023-03-19T10:20:37;13.00;99.90
55004;DHT22;40900;52.710;6.438;2023-03-19T10:26:10;13.30;99.90
55004;DHT22;40900;52.710;6.438;2023-03-19T10:28:38;13.60;99.90
55004;DHT22;40900;52.710;6.438;2023-03-19T10:36:36;14.50;99.90
55004;DHT22;40900;52.710;6.438;2023-03-19T10:39:03;15.50;99.90
55004;DHT22;40900;52.710;6.438;2023-03-19T10:41:56;15.60;99.90
55004;DHT22;40900;52.710;6.438;2023-03-19T10:44:47;15.50;99.90
55004;DHT22;40900;52.710;6.438;2023-03-19T10:47:15;15.10;99.90
55004;DHT22;40900;52.710;6.438;2023-03-19T10:49:42;15.10;99.90
55004;DHT22;40900;52.710;6.438;2023-03-19T10:52:19;15.20;99.90
55004;DHT22;40900;52.710;6.438;2023-03-19T10:54:46;14.90;99.90
55004;DHT22;40900;52.710;6.438;2023-03-19T10:57:28;14.30;99.90
55004;DHT22;40900;52.710;6.438;2023-03-19T10:59:54;13.90;99.90
55004;DHT22;40900;52.710;6.438;2023-03-19T11:02:22;14.10;99.90
55004;DHT22;40900;52.710;6.438;2023-03-19T11:07:39;14.30;99.90
55004;DHT22;40900;52.710;6.438;2023-03-19T11:10:12;15.30;99.90
55004;DHT22;40900;52.710;6.438;2023-03-19T11:12:39;15.70;99.90
55004;DHT22;40900;52.710;6.438;2023-03-19T11:15:17;16.40;99.90
55004;DHT22;40900;52.710;6.438;2023-03-19T11:17:55;17.60;99.90
55004;DHT22;40900;52.710;6.438;2023-03-19T11:20:23;17.10;99.90
55004;DHT22;40900;52.710;6.438;2023-03-19T11:22:53;17.50;99.90
55004;DHT22;40900;52.710;6.438;2023-03-19T11:25:39;17.70;99.90
55004;DHT22;40900;52.710;6.438;2023-03-19T11:28:15;17.00;99.90
55004;DHT22;40900;52.710;6.438;2023-03-19T11:30:49;16.40;99.90
55004;DHT22;40900;52.710;6.438;2023-03-19T11:39:47;16.70;99.90
55004;DHT22;40900;52.710;6.438;2023-03-19T11:42:41;16.60;99.90
55004;DHT22;40900;52.710;6.438;2023-03-19T11:45:39;16.60;99.90
55004;DHT22;40900;52.710;6.438;2023-03-19T11:48:48;16.70;99.90
55004;DHT22;40900;52.710;6.438;2023-03-19T11:51:24;16.50;99.90
55004;DHT22;40900;52.710;6.438;2023-03-19T11:57:00;16.60;99.90
55004;DHT22;40900;52.710;6.438;2023-03-19T11:59:37;16.30;99.90
55004;DHT22;40900;52.710;6.438;2023-03-19T12:05:30;16.20;99.90
55004;DHT22;40900;52.710;6.438;2023-03-19T12:13:30;15.80;99.90
55004;DHT22;40900;52.710;6.438;2023-03-19T12:21:45;16.00;99.90
55004;DHT22;40900;52.710;6.438;2023-03-19T12:27:21;16.20;99.90
55004;DHT22;40900;52.710;6.438;2023-03-19T12:32:42;16.30;99.90
55004;DHT22;40900;52.710;6.438;2023-03-19T12:35:16;16.50;99.90
55004;DHT22;40900;52.710;6.438;2023-03-19T12:37:52;16.70;99.90
55004;DHT22;40900;52.710;6.438;2023-03-19T12:40:51;16.80;99.90
55004;DHT22;40900;52.710;6.438;2023-03-19T12:43:29;17.00;99.90
55004;DHT22;40900;52.710;6.438;2023-03-19T12:46:12;17.10;99.90
55004;DHT22;40900;52.710;6.438;2023-03-19T12:48:48;17.00;99.90
55004;DHT22;40900;52.710;6.438;2023-03-19T12:51:19;17.10;99.90
55004;DHT22;40900;52.710;6.438;2023-03-19T12:53:55;17.10;99.90
55004;DHT22;40900;52.710;6.438;2023-03-19T12:59:19;17.20;99.90
55004;DHT22;40900;52.710;6.438;2023-03-19T13:01:52;17.10;99.90
55004;DHT22;40900;52.710;6.438;2023-03-19T13:04:29;17.00;99.90
55004;DHT22;40900;52.710;6.438;2023-03-19T13:10:08;17.00;99.90
55004;DHT22;40900;52.710;6.438;2023-03-19T13:12:37;17.10;99.90
55004;DHT22;40900;52.710;6.438;2023-03-19T13:15:11;17.00;99.90
55004;DHT22;40900;52.710;6.438;2023-03-19T13:23:21;16.80;99.90
55004;DHT22;40900;52.710;6.438;2023-03-19T13:25:49;16.70;99.90
55004;DHT22;40900;52.710;6.438;2023-03-19T13:28:32;16.60;99.90
55004;DHT22;40900;52.710;6.438;2023-03-19T13:31:00;16.70;99.90
55004;DHT22;40900;52.710;6.438;2023-03-19T13:33:27;16.70;99.90
55004;DHT22;40900;52.710;6.438;2023-03-19T13:35:54;16.70;99.90
55004;DHT22;40900;52.710;6.438;2023-03-19T13:38:47;16.70;99.90
55004;DHT22;40900;52.710;6.438;2023-03-19T13:44:17;16.30;99.90
55004;DHT22;40900;52.710;6.438;2023-03-19T13:46:45;16.30;99.90
55004;DHT22;40900;52.710;6.438;2023-03-19T13:49:33;16.10;99.90
55004;DHT22;40900;52.710;6.438;2023-03-19T13:54:39;16.00;99.90
55004;DHT22;40900;52.710;6.438;2023-03-19T13:57:17;16.00;99.90
55004;DHT22;40900;52.710;6.438;2023-03-19T13:59:45;16.00;99.90
55004;DHT22;40900;52.710;6.438;2023-03-19T14:05:03;16.10;99.90
55004;DHT22;40900;52.710;6.438;2023-03-19T14:07:38;16.20;99.90
55004;DHT22;40900;52.710;6.438;2023-03-19T14:10:13;16.30;99.90
55004;DHT22;40900;52.710;6.438;2023-03-19T14:12:43;16.10;99.90
55004;DHT22;40900;52.710;6.438;2023-03-19T14:28:56;15.60;99.90
55004;DHT22;40900;52.710;6.438;2023-03-19T14:31:46;15.60;99.90
55004;DHT22;40900;52.710;6.438;2023-03-19T14:34:25;15.70;99.90
55004;DHT22;40900;52.710;6.438;2023-03-19T14:37:22;15.60;99.90
55004;DHT22;40900;52.710;6.438;2023-03-19T14:42:37;15.50;99.90
55004;DHT22;40900;52.710;6.438;2023-03-19T14:51:00;15.50;99.90
55004;DHT22;40900;52.710;6.438;2023-03-19T14:53:47;15.40;99.90
55004;DHT22;40900;52.710;6.438;2023-03-19T14:56:29;15.30;99.90
55004;DHT22;40900;52.710;6.438;2023-03-19T14:58:56;15.00;99.90
55004;DHT22;40900;52.710;6.438;2023-03-19T15:01:24;14.80;99.90
55004;DHT22;40900;52.710;6.438;2023-03-19T15:04:03;14.60;99.90
55004;DHT22;40900;52.710;6.438;2023-03-19T15:06:34;14.40;99.90
55004;DHT22;40900;52.710;6.438;2023-03-19T15:09:04;14.20;99.90
55004;DHT22;40900;52.710;6.438;2023-03-19T15:15:21;14.00;99.90
55004;DHT22;40900;52.710;6.438;2023-03-19T15:17:56;13.90;99.90
55004;DHT22;40900;52.710;6.438;2023-03-19T15:20:22;13.80;99.90
55004;DHT22;40900;52.710;6.438;2023-03-19T15:22:59;13.90;99.90
55004;DHT22;40900;52.710;6.438;2023-03-19T15:25:25;13.80;99.90
55004;DHT22;40900;52.710;6.438;2023-03-19T15:28:04;13.80;99.90
55004;DHT22;40900;52.710;6.438;2023-03-19T15:30:31;13.80;99.90
55004;DHT22;40900;52.710;6.438;2023-03-19T15:32:57;13.60;99.90
55004;DHT22;40900;52.710;6.438;2023-03-19T15:35:30;13.50;99.90
55004;DHT22;40900;52.710;6.438;2023-03-19T15:37:59;13.40;99.90
55004;DHT22;40900;52.710;6.438;2023-03-19T15:40:28;13.30;99.90
55004;DHT22;40900;52.710;6.438;2023-03-19T15:42:57;13.30;99.90
55004;DHT22;40900;52.710;6.438;2023-03-19T15:45:25;13.30;99.90
55004;DHT22;40900;52.710;6.438;2023-03-19T15:48:07;13.30;99.90
55004;DHT22;40900;52.710;6.438;2023-03-19T15:50:36;13.30;99.90
55004;DHT22;40900;52.710;6.438;2023-03-19T15:53:07;13.30;99.90
55004;DHT22;40900;52.710;6.438;2023-03-19T15:55:34;13.30;99.90
55004;DHT22;40900;52.710;6.438;2023-03-19T15:58:20;13.30;99.90
55004;DHT22;40900;52.710;6.438;2023-03-19T16:00:46;13.30;99.90
55004;DHT22;40900;52.710;6.438;2023-03-19T16:03:17;13.30;99.90
55004;DHT22;40900;52.710;6.438;2023-03-19T16:05:44;13.40;99.90
55004;DHT22;40900;52.710;6.438;2023-03-19T16:08:21;13.30;99.90
55004;DHT22;40900;52.710;6.438;2023-03-19T16:10:48;13.30;99.90
55004;DHT22;40900;52.710;6.438;2023-03-19T16:16:39;13.10;99.90
55004;DHT22;40900;52.710;6.438;2023-03-19T16:18:46;13.00;99.90
55004;DHT22;40900;52.710;6.438;2023-03-19T16:21:19;13.00;99.90
55004;DHT22;40900;52.710;6.438;2023-03-19T16:23:57;13.00;99.90
55004;DHT22;40900;52.710;6.438;2023-03-19T16:28:58;12.80;99.90
55004;DHT22;40900;52.710;6.438;2023-03-19T16:31:27;12.80;99.90
55004;DHT22;40900;52.710;6.438;2023-03-19T16:33:54;12.80;99.90
55004;DHT22;40900;52.710;6.438;2023-03-19T16:36:22;12.80;99.90
55004;DHT22;40900;52.710;6.438;2023-03-19T16:38:56;12.80;99.90
55004;DHT22;40900;52.710;6.438;2023-03-19T16:41:28;12.80;99.90
55004;DHT22;40900;52.710;6.438;2023-03-19T16:44:09;12.70;99.90
55004;DHT22;40900;52.710;6.438;2023-03-19T16:46:36;12.50;99.90
55004;DHT22;40900;52.710;6.438;2023-03-19T16:49:02;12.50;99.90
55004;DHT22;40900;52.710;6.438;2023-03-19T16:51:29;12.50;99.90
55004;DHT22;40900;52.710;6.438;2023-03-19T16:53:54;12.50;99.90
55004;DHT22;40900;52.710;6.438;2023-03-19T16:56:20;12.50;99.90
55004;DHT22;40900;52.710;6.438;2023-03-19T16:58:46;12.30;99.90
55004;DHT22;40900;52.710;6.438;2023-03-19T17:01:18;12.30;99.90
55004;DHT22;40900;52.710;6.438;2023-03-19T17:03:45;12.30;99.90
55004;DHT22;40900;52.710;6.438;2023-03-19T17:06:12;12.40;99.90
55004;DHT22;40900;52.710;6.438;2023-03-19T17:08:38;12.40;99.90
55004;DHT22;40900;52.710;6.438;2023-03-19T17:11:05;12.40;99.90
55004;DHT22;40900;52.710;6.438;2023-03-19T17:13:33;12.40;99.90
55004;DHT22;40900;52.710;6.438;2023-03-19T17:16:02;12.50;99.90
55004;DHT22;40900;52.710;6.438;2023-03-19T17:18:31;12.40;99.90
55004;DHT22;40900;52.710;6.438;2023-03-19T17:21:09;12.40;99.90
55004;DHT22;40900;52.710;6.438;2023-03-19T17:23:36;12.40;99.90
55004;DHT22;40900;52.710;6.438;2023-03-19T17:26:23;12.40;99.90
55004;DHT22;40900;52.710;6.438;2023-03-19T17:28:53;12.50;99.90
55004;DHT22;40900;52.710;6.438;2023-03-19T17:31:25;12.40;99.90
55004;DHT22;40900;52.710;6.438;2023-03-19T17:34:04;12.40;99.90